createdAt,value
2022-11-18T00:01:07.178Z,0.00
2022-11-18T00:03:34.398Z,0.00
2022-11-18T00:06:01.505Z,0.10
2022-11-18T00:08:28.811Z,0.03
2022-11-18T00:10:55.967Z,0.88
2022-11-18T00:13:43.114Z,0.20
2022-11-18T00:16:13.152Z,0.47
2022-11-18T00:18:40.384Z,0.00
2022-11-18T00:21:09.001Z,0.10
2022-11-18T00:23:36.262Z,0.35
2022-11-18T00:26:05.489Z,0.30
2022-11-18T00:28:33.094Z,0.00
2022-11-18T00:31:02.273Z,0.10
2022-11-18T00:33:29.314Z,0.30
2022-11-18T00:35:56.525Z,0.60
2022-11-18T00:38:23.849Z,0.40
2022-11-18T00:40:50.814Z,0.70
2022-11-18T00:43:17.909Z,0.10
2022-11-18T00:45:44.994Z,0.40
2022-11-18T00:48:12.141Z,0.20
2022-11-18T00:50:39.311Z,0.30
2022-11-18T00:53:06.389Z,0.30
2022-11-18T00:55:33.480Z,0.10
2022-11-18T00:58:00.608Z,0.10
2022-11-18T01:00:27.866Z,0.15
2022-11-18T01:02:54.990Z,0.10
2022-11-18T01:05:22.085Z,0.20
2022-11-18T01:07:49.206Z,0.10
2022-11-18T01:10:16.797Z,0.20
2022-11-18T01:13:03.850Z,0.20
2022-11-18T01:15:30.938Z,0.10
2022-11-18T01:17:58.071Z,0.10
2022-11-18T01:20:25.146Z,0.43
2022-11-18T01:22:52.270Z,0.30
2022-11-18T01:25:19.393Z,0.10
2022-11-18T01:27:46.473Z,0.10
2022-11-18T01:30:13.754Z,0.10
2022-11-18T01:32:40.869Z,0.20
2022-11-18T01:35:08.151Z,0.10
2022-11-18T01:37:35.251Z,0.10
2022-11-18T01:40:02.533Z,0.38
2022-11-18T01:42:29.673Z,0.10
2022-11-18T01:45:00.098Z,0.10
2022-11-18T01:47:30.918Z,0.10
2022-11-18T01:49:59.789Z,0.10
2022-11-18T01:52:27.397Z,0.10
2022-11-18T01:54:57.477Z,0.25
2022-11-18T01:57:27.622Z,0.20
2022-11-18T01:59:57.848Z,0.10
2022-11-18T02:02:25.110Z,1.07
2022-11-18T02:04:53.410Z,0.17
2022-11-18T02:07:21.396Z,0.20
2022-11-18T02:09:48.918Z,0.65
2022-11-18T02:12:16.064Z,0.30
2022-11-18T02:14:46.393Z,0.10
2022-11-18T02:17:33.423Z,0.10
2022-11-18T02:20:07.880Z,0.30
2022-11-18T02:22:48.608Z,0.10
2022-11-18T02:25:22.354Z,0.10
2022-11-18T02:27:49.392Z,0.10
2022-11-18T02:30:17.486Z,0.10
2022-11-18T02:32:44.556Z,0.10
2022-11-18T02:35:18.314Z,0.20
2022-11-18T02:37:49.103Z,0.20
2022-11-18T02:40:17.193Z,0.10
2022-11-18T02:42:45.746Z,0.10
2022-11-18T02:45:16.119Z,0.20
2022-11-18T02:47:44.813Z,0.40
2022-11-18T02:50:13.448Z,0.37
2022-11-18T02:52:41.576Z,0.00
2022-11-18T02:55:10.356Z,0.00
2022-11-18T02:57:38.404Z,0.20
2022-11-18T03:00:05.939Z,0.00
2022-11-18T03:02:41.825Z,0.05
2022-11-18T03:05:11.052Z,0.10
2022-11-18T03:07:40.087Z,0.10
2022-11-18T03:10:07.326Z,0.10
2022-11-18T03:12:50.040Z,0.30
2022-11-18T03:15:37.015Z,0.20
2022-11-18T03:18:23.985Z,0.10
2022-11-18T03:20:54.272Z,0.10
2022-11-18T03:23:26.754Z,0.40
2022-11-18T03:25:57.205Z,0.30
2022-11-18T03:28:28.921Z,0.30
2022-11-18T03:31:13.797Z,0.03
2022-11-18T03:33:44.632Z,0.00
2022-11-18T03:36:13.920Z,0.10
2022-11-18T03:38:42.836Z,0.10
2022-11-18T03:41:12.063Z,0.10
2022-11-18T03:43:41.215Z,0.10
2022-11-18T03:46:13.537Z,0.00
2022-11-18T03:48:57.380Z,0.10
2022-11-18T03:51:26.816Z,0.00
2022-11-18T03:54:00.825Z,0.50
2022-11-18T03:56:31.047Z,0.20
2022-11-18T03:59:02.723Z,0.00
2022-11-18T04:01:33.976Z,0.10
2022-11-18T04:04:01.167Z,0.13
2022-11-18T04:06:38.438Z,0.20
2022-11-18T04:09:09.253Z,0.10
2022-11-18T04:11:59.131Z,0.10
2022-11-18T04:14:26.651Z,0.10
2022-11-18T04:16:53.808Z,0.20
2022-11-18T04:19:21.241Z,0.10
2022-11-18T04:21:49.273Z,0.07
2022-11-18T04:24:16.479Z,0.00
2022-11-18T04:26:43.657Z,0.20
2022-11-18T04:29:10.847Z,0.10
2022-11-18T04:31:37.994Z,0.10
2022-11-18T04:34:05.151Z,0.10
2022-11-18T04:36:32.219Z,0.10
2022-11-18T04:38:59.338Z,0.20
2022-11-18T04:41:46.398Z,0.10
2022-11-18T04:44:13.616Z,0.10
2022-11-18T04:46:44.103Z,0.20
2022-11-18T04:49:12.943Z,0.10
2022-11-18T04:51:40.414Z,0.10
2022-11-18T04:54:07.530Z,0.10
2022-11-18T04:56:34.627Z,0.10
2022-11-18T04:59:02.478Z,0.10
2022-11-18T05:01:30.085Z,0.10
2022-11-18T05:03:57.404Z,0.15
2022-11-18T05:06:24.548Z,0.10
2022-11-18T05:08:51.686Z,0.10
2022-11-18T05:11:38.722Z,0.10
2022-11-18T05:14:06.216Z,0.10
2022-11-18T05:16:33.397Z,0.20
2022-11-18T05:19:02.101Z,0.10
2022-11-18T05:21:29.228Z,0.10
2022-11-18T05:23:56.367Z,0.10
2022-11-18T05:26:23.518Z,0.10
2022-11-18T05:28:50.663Z,0.10
2022-11-18T05:31:18.096Z,0.10
2022-11-18T05:33:45.775Z,0.10
2022-11-18T05:36:14.216Z,0.10
2022-11-18T05:38:41.656Z,0.10
2022-11-18T05:41:09.103Z,0.10
2022-11-18T05:43:37.082Z,0.10
2022-11-18T05:46:04.730Z,0.10
2022-11-18T05:48:31.965Z,0.10
2022-11-18T05:50:59.139Z,0.10
2022-11-18T05:53:26.304Z,0.10
2022-11-18T05:56:13.339Z,0.10
2022-11-18T05:58:40.463Z,0.20
2022-11-18T06:01:09.175Z,0.10
2022-11-18T06:03:38.356Z,0.20
2022-11-18T06:06:06.210Z,0.30
2022-11-18T06:08:36.779Z,0.28
2022-11-18T06:11:04.038Z,0.20
2022-11-18T06:13:34.706Z,0.20
2022-11-18T06:16:01.995Z,0.20
2022-11-18T06:18:30.371Z,0.10
2022-11-18T06:20:59.914Z,0.10
2022-11-18T06:23:28.327Z,0.10
2022-11-18T06:25:55.726Z,0.10
2022-11-18T06:28:23.236Z,0.10
2022-11-18T06:30:50.351Z,0.10
2022-11-18T06:33:17.454Z,0.00
2022-11-18T06:35:44.572Z,0.00
2022-11-18T06:38:11.874Z,0.05
2022-11-18T06:40:39.023Z,0.00
2022-11-18T06:43:26.956Z,0.10
2022-11-18T06:46:14.039Z,0.10
2022-11-18T06:48:41.246Z,0.00
2022-11-18T06:51:08.490Z,0.05
2022-11-18T06:53:35.827Z,0.10
2022-11-18T06:56:04.706Z,0.10
2022-11-18T06:58:31.842Z,0.10
2022-11-18T07:00:59.078Z,0.10
2022-11-18T07:03:26.231Z,0.10
2022-11-18T07:05:53.334Z,0.10
2022-11-18T07:08:20.470Z,0.20
2022-11-18T07:10:52.786Z,0.28
2022-11-18T07:13:20.139Z,0.30
2022-11-18T07:15:47.218Z,0.10
2022-11-18T07:18:14.536Z,0.20
2022-11-18T07:20:41.616Z,0.17
2022-11-18T07:23:09.335Z,0.40
2022-11-18T07:25:39.113Z,0.28
2022-11-18T07:28:09.718Z,0.10
2022-11-18T07:30:36.893Z,0.30
2022-11-18T07:33:04.036Z,0.35
2022-11-18T07:35:31.185Z,0.30
2022-11-18T07:37:58.262Z,0.22
2022-11-18T07:40:25.323Z,1.00
2022-11-18T07:42:52.419Z,0.30
2022-11-18T07:45:19.542Z,0.20
2022-11-18T07:47:46.603Z,1.70
2022-11-18T07:50:13.894Z,0.50
2022-11-18T07:52:40.966Z,0.10
2022-11-18T07:55:08.350Z,0.40
2022-11-18T07:57:35.430Z,0.10
2022-11-18T08:00:04.362Z,0.10
2022-11-18T08:02:31.514Z,0.10
2022-11-18T08:04:58.630Z,0.30
2022-11-18T08:07:25.889Z,0.10
2022-11-18T08:09:53.029Z,0.20
2022-11-18T08:12:20.129Z,0.17
2022-11-18T08:14:47.302Z,0.00
2022-11-18T08:17:14.637Z,0.10
2022-11-18T08:19:41.743Z,0.10
2022-11-18T08:22:08.877Z,0.10
2022-11-18T08:24:36.045Z,0.00
2022-11-18T08:27:03.157Z,0.10
2022-11-18T08:29:30.613Z,0.05
2022-11-18T08:31:57.801Z,0.10
2022-11-18T08:34:24.901Z,0.20
2022-11-18T08:36:52.052Z,0.10
2022-11-18T08:39:19.491Z,0.20
2022-11-18T08:41:47.692Z,0.60
2022-11-18T08:44:16.601Z,1.00
2022-11-18T08:46:47.566Z,0.15
2022-11-18T08:49:16.939Z,0.10
2022-11-18T08:51:44.353Z,0.10
2022-11-18T08:54:11.561Z,0.00
2022-11-18T08:56:39.121Z,0.00
2022-11-18T08:59:06.656Z,0.00
2022-11-18T09:01:33.902Z,0.10
2022-11-18T09:04:01.124Z,0.00
2022-11-18T09:06:28.328Z,0.20
2022-11-18T09:08:55.596Z,0.00
2022-11-18T09:11:23.758Z,0.07
2022-11-18T09:16:46.320Z,0.13
2022-11-18T09:19:45.188Z,0.00
2022-11-18T09:22:00.681Z,0.00
2022-11-18T09:24:27.822Z,0.00
2022-11-18T09:26:54.961Z,0.00
2022-11-18T09:29:26.064Z,0.10
2022-11-18T09:31:53.836Z,0.05
2022-11-18T09:34:21.016Z,0.00
2022-11-18T09:36:48.253Z,0.00
2022-11-18T09:39:15.692Z,0.10
2022-11-18T09:41:43.009Z,0.10
2022-11-18T09:44:18.420Z,0.00
2022-11-18T09:47:05.400Z,0.00
2022-11-18T09:49:36.251Z,0.10
2022-11-18T09:52:05.397Z,0.03
2022-11-18T09:54:34.805Z,0.07
2022-11-18T09:57:02.329Z,0.10
2022-11-18T09:59:31.885Z,0.00
2022-11-18T10:02:18.976Z,0.10
2022-11-18T10:04:46.391Z,0.10
2022-11-18T10:07:16.860Z,0.20
2022-11-18T10:09:44.851Z,0.10
2022-11-18T10:12:19.516Z,0.03
2022-11-18T10:14:56.116Z,0.10
2022-11-18T10:17:44.489Z,0.10
2022-11-18T10:20:11.696Z,0.10
2022-11-18T10:22:38.896Z,0.20
2022-11-18T10:25:12.124Z,0.30
2022-11-18T10:27:40.388Z,0.10
2022-11-18T10:30:14.089Z,0.10
2022-11-18T10:33:01.206Z,0.10
2022-11-18T10:35:30.682Z,0.10
2022-11-18T10:38:09.420Z,0.10
2022-11-18T10:40:38.960Z,0.20
2022-11-18T10:43:06.063Z,0.10
2022-11-18T10:45:33.563Z,0.10
2022-11-18T10:48:01.015Z,0.10
2022-11-18T10:50:47.246Z,0.10
2022-11-18T10:53:30.272Z,0.10
2022-11-18T10:56:00.060Z,0.40
2022-11-18T10:58:27.466Z,0.10
2022-11-18T11:01:04.875Z,0.10
2022-11-18T11:03:33.935Z,0.10
2022-11-18T11:06:21.040Z,0.30
2022-11-18T11:08:52.335Z,0.10
2022-11-18T11:11:26.145Z,0.40
2022-11-18T11:13:56.136Z,0.20
2022-11-18T11:16:26.389Z,0.10
2022-11-18T11:18:56.203Z,0.10
2022-11-18T11:21:25.207Z,0.10
2022-11-18T11:23:52.382Z,0.20
2022-11-18T11:29:27.620Z,0.10
2022-11-18T11:31:54.761Z,0.10
2022-11-18T11:34:26.604Z,0.30
2022-11-18T11:37:13.588Z,0.10
2022-11-18T11:39:40.820Z,0.10
2022-11-18T11:42:07.996Z,0.10
2022-11-18T11:44:35.069Z,0.20
2022-11-18T11:47:28.663Z,0.30
2022-11-18T11:49:55.755Z,0.20
2022-11-18T11:52:30.637Z,0.00
2022-11-18T11:55:06.012Z,0.00
2022-11-18T11:57:39.096Z,0.00
2022-11-18T12:00:10.036Z,0.05
2022-11-18T12:02:57.125Z,0.10
2022-11-18T12:05:34.111Z,0.00
2022-11-18T12:08:02.908Z,0.00
2022-11-18T12:10:30.277Z,0.10
2022-11-18T12:13:12.173Z,0.00
2022-11-18T12:15:59.209Z,0.00
2022-11-18T12:18:31.092Z,0.00
2022-11-18T12:20:58.234Z,0.20
2022-11-18T12:23:26.968Z,0.00
2022-11-18T12:25:58.504Z,0.00
2022-11-18T12:28:42.221Z,0.00
2022-11-18T12:31:16.740Z,0.10
2022-11-18T12:33:48.008Z,0.10
2022-11-18T12:36:30.623Z,0.20
2022-11-18T12:38:58.224Z,0.20
2022-11-18T12:42:05.123Z,0.20
2022-11-18T12:44:32.235Z,0.10
2022-11-18T12:46:59.937Z,0.10
2022-11-18T12:49:27.105Z,0.25
2022-11-18T12:51:58.075Z,0.60
2022-11-18T12:54:27.359Z,0.30
2022-11-18T12:56:55.267Z,0.13
2022-11-18T12:59:39.045Z,0.57
2022-11-18T13:02:16.714Z,0.10
2022-11-18T13:04:47.608Z,0.20
2022-11-18T13:07:38.160Z,0.30
2022-11-18T13:10:12.594Z,0.30
2022-11-18T13:12:40.632Z,0.00
2022-11-18T13:15:31.535Z,0.55
2022-11-18T13:18:07.499Z,0.10
2022-11-18T13:20:36.041Z,0.00
2022-11-18T13:23:26.717Z,0.00
2022-11-18T13:25:53.859Z,0.10
2022-11-18T13:28:22.015Z,0.30
2022-11-18T13:30:53.576Z,0.10
2022-11-18T13:33:20.796Z,0.10
2022-11-18T13:35:47.967Z,0.20
2022-11-18T13:38:30.364Z,0.20
2022-11-18T13:41:04.856Z,0.10
2022-11-18T13:43:33.004Z,0.10
2022-11-18T13:46:01.197Z,0.00
2022-11-18T13:48:29.516Z,0.10
2022-11-18T13:50:58.739Z,0.20
2022-11-18T13:53:41.663Z,0.10
2022-11-18T13:56:18.269Z,0.30
2022-11-18T13:59:15.888Z,0.10
2022-11-18T14:01:33.710Z,0.10
2022-11-18T14:04:00.811Z,0.00
2022-11-18T14:06:29.820Z,0.00
2022-11-18T14:09:17.235Z,0.10
2022-11-18T14:11:46.251Z,0.95
2022-11-18T14:14:14.170Z,1.05
2022-11-18T14:16:42.224Z,1.20
2022-11-18T14:19:27.221Z,1.50
2022-11-18T14:21:54.325Z,1.27
2022-11-18T14:24:26.815Z,1.27
2022-11-18T14:26:53.982Z,1.30
2022-11-18T14:29:23.156Z,1.40
2022-11-18T14:32:05.931Z,1.50
2022-11-18T14:34:33.123Z,1.60
2022-11-18T14:37:00.206Z,1.80
2022-11-18T14:39:28.632Z,1.80
2022-11-18T14:41:56.213Z,1.67
2022-11-18T14:44:24.499Z,2.00
2022-11-18T14:47:00.718Z,1.83
2022-11-18T14:49:30.710Z,2.97
2022-11-18T14:51:58.246Z,2.30
2022-11-18T14:54:27.371Z,2.92
2022-11-18T14:56:58.072Z,3.10
2022-11-18T14:59:25.300Z,2.38
2022-11-18T15:01:52.531Z,2.28
2022-11-18T15:04:21.952Z,2.05
2022-11-18T15:06:49.376Z,2.30
2022-11-18T15:09:16.607Z,1.90
2022-11-18T15:11:44.636Z,2.00
2022-11-18T15:14:11.737Z,2.00
2022-11-18T15:16:38.907Z,2.00
2022-11-18T15:19:06.909Z,1.70
2022-11-18T15:21:34.349Z,1.80
2022-11-18T15:24:01.352Z,2.10
2022-11-18T15:26:29.763Z,2.20
2022-11-18T15:28:57.972Z,2.20
2022-11-18T15:31:25.561Z,2.10
2022-11-18T15:33:53.026Z,2.60
2022-11-18T15:36:28.074Z,2.28
2022-11-18T15:38:55.413Z,2.70
2022-11-18T15:41:22.685Z,2.83
2022-11-18T15:43:50.425Z,2.67
2022-11-18T15:46:19.324Z,2.50
2022-11-18T15:48:46.532Z,3.42
2022-11-18T15:51:13.720Z,3.30
2022-11-18T15:53:41.134Z,3.38
2022-11-18T15:56:23.652Z,3.05
2022-11-18T15:58:56.828Z,3.45
2022-11-18T16:01:24.659Z,3.00
2022-11-18T16:03:52.020Z,3.53
2022-11-18T16:06:19.423Z,3.60
2022-11-18T16:08:46.601Z,3.78
2022-11-18T16:11:34.095Z,3.55
2022-11-18T16:14:02.735Z,3.40
2022-11-18T16:16:30.257Z,4.50
2022-11-18T16:18:58.204Z,4.60
2022-11-18T16:21:25.688Z,6.80
2022-11-18T16:24:01.026Z,5.28
2022-11-18T16:26:30.742Z,4.93
2022-11-18T16:28:58.011Z,5.32
2022-11-18T16:31:40.828Z,5.53
2022-11-18T16:34:08.149Z,4.40
2022-11-18T16:36:35.845Z,6.00
2022-11-18T16:39:05.266Z,5.30
2022-11-18T16:41:32.509Z,5.80
2022-11-18T16:44:00.549Z,6.47
2022-11-18T16:46:28.119Z,5.35
2022-11-18T16:48:56.756Z,6.80
2022-11-18T16:51:25.155Z,5.85
2022-11-18T16:53:53.133Z,5.82
2022-11-18T16:56:22.163Z,6.53
2022-11-18T16:58:49.327Z,5.90
2022-11-18T17:01:21.014Z,6.80
2022-11-18T17:03:52.203Z,6.43
2022-11-18T17:06:20.023Z,4.75
2022-11-18T17:08:47.146Z,5.20
2022-11-18T17:11:14.269Z,5.25
2022-11-18T17:13:42.102Z,4.65
2022-11-18T17:16:10.423Z,4.80
2022-11-18T17:18:37.825Z,4.20
2022-11-18T17:21:11.011Z,4.53
2022-11-18T17:23:38.556Z,5.67
2022-11-18T17:26:06.334Z,5.18
2022-11-18T17:28:33.940Z,5.65
2022-11-18T17:31:18.124Z,6.10
2022-11-18T17:33:45.411Z,5.80
2022-11-18T17:36:13.744Z,6.03
2022-11-18T17:38:41.844Z,5.80
2022-11-18T17:41:09.955Z,5.90
2022-11-18T17:43:37.107Z,4.50
2022-11-18T17:46:04.187Z,4.50
2022-11-18T17:48:31.667Z,5.80
2022-11-18T17:51:06.839Z,5.35
2022-11-18T17:53:33.906Z,6.15
2022-11-18T17:56:04.158Z,5.35
2022-11-18T17:58:31.785Z,5.95
2022-11-18T18:01:07.726Z,4.97
2022-11-18T18:03:34.975Z,5.32
2022-11-18T18:06:03.782Z,5.60
2022-11-18T18:08:30.908Z,6.13
2022-11-18T18:11:01.995Z,6.00
2022-11-18T18:13:49.008Z,5.82
2022-11-18T18:16:16.475Z,0.20
2022-11-18T18:18:43.566Z,0.20
2022-11-18T18:21:13.057Z,0.10
2022-11-18T18:23:40.418Z,0.30
2022-11-18T18:26:08.245Z,0.65
2022-11-18T18:28:35.535Z,0.40
2022-11-18T18:31:04.018Z,0.30
2022-11-18T18:33:31.195Z,0.90
2022-11-18T18:35:59.159Z,0.20
2022-11-18T18:38:26.707Z,0.10
2022-11-18T18:40:54.161Z,0.32
2022-11-18T18:43:22.173Z,0.40
2022-11-18T18:46:09.171Z,0.30
2022-11-18T18:48:36.251Z,0.00
2022-11-18T18:51:05.098Z,0.57
2022-11-18T18:53:33.277Z,0.20
2022-11-18T18:56:00.809Z,0.45
2022-11-18T18:58:28.914Z,0.20
2022-11-18T19:00:58.448Z,0.20
2022-11-18T19:03:25.630Z,0.60
2022-11-18T19:06:27.363Z,0.60
2022-11-18T19:08:39.994Z,0.20
2022-11-18T19:11:07.181Z,0.10
2022-11-18T19:13:34.599Z,0.10
2022-11-18T19:16:06.183Z,0.30
2022-11-18T19:18:35.165Z,0.10
2022-11-18T19:21:02.293Z,0.10
2022-11-18T19:23:29.902Z,0.20
2022-11-18T19:25:59.506Z,0.10
2022-11-18T19:28:26.721Z,0.20
2022-11-18T19:30:53.840Z,0.20
2022-11-18T19:33:20.934Z,0.10
2022-11-18T19:35:48.058Z,0.10
2022-11-18T19:38:15.361Z,0.15
2022-11-18T19:40:42.485Z,0.10
2022-11-18T19:43:09.640Z,0.40
2022-11-18T19:45:36.720Z,0.30
2022-11-18T19:48:04.197Z,0.10
2022-11-18T19:50:31.379Z,0.20
2022-11-18T19:52:58.477Z,0.30
2022-11-18T19:55:25.550Z,0.38
2022-11-18T19:57:52.652Z,0.40
2022-11-18T20:00:19.905Z,0.10
2022-11-18T20:02:46.881Z,0.57
2022-11-18T20:05:33.889Z,0.50
2022-11-18T20:08:00.988Z,0.50
2022-11-18T20:10:28.102Z,0.32
2022-11-18T20:12:56.209Z,0.30
2022-11-18T20:15:23.403Z,0.77
2022-11-18T20:17:50.472Z,0.33
2022-11-18T20:20:17.601Z,0.55
2022-11-18T20:22:44.703Z,0.13
2022-11-18T20:25:12.427Z,0.35
2022-11-18T20:27:39.456Z,0.10
2022-11-18T20:30:07.403Z,0.10
2022-11-18T20:32:34.625Z,0.10
2022-11-18T20:35:01.689Z,0.45
2022-11-18T20:37:29.454Z,0.20
2022-11-18T20:39:56.635Z,0.70
2022-11-18T20:42:44.237Z,0.20
2022-11-18T20:45:11.491Z,0.10
2022-11-18T20:47:38.548Z,0.10
2022-11-18T20:50:05.857Z,0.88
2022-11-18T20:52:34.608Z,0.10
2022-11-18T20:55:05.642Z,0.20
2022-11-18T20:57:33.177Z,0.30
2022-11-18T21:00:00.232Z,0.20
2022-11-18T21:02:27.292Z,0.00
2022-11-18T21:04:54.477Z,0.00
2022-11-18T21:07:21.569Z,0.10
2022-11-18T21:09:50.344Z,0.10
2022-11-18T21:12:17.477Z,0.10
2022-11-18T21:14:44.617Z,0.10
2022-11-18T21:17:11.927Z,0.15
2022-11-18T21:19:39.095Z,0.10
2022-11-18T21:22:06.169Z,0.28
2022-11-18T21:24:34.704Z,0.10
2022-11-18T21:27:02.753Z,0.60
2022-11-18T21:29:30.828Z,0.10
2022-11-18T21:32:00.501Z,0.00
2022-11-18T21:34:27.921Z,0.20
2022-11-18T21:36:55.506Z,0.20
2022-11-18T21:39:24.044Z,0.10
2022-11-18T21:41:55.761Z,0.40
2022-11-18T21:44:23.730Z,0.10
2022-11-18T21:46:51.000Z,0.30
2022-11-18T21:49:18.399Z,0.10
2022-11-18T21:51:45.721Z,0.20
2022-11-18T21:54:15.080Z,0.40
2022-11-18T21:56:42.129Z,0.10
2022-11-18T21:59:09.210Z,0.10
2022-11-18T22:01:36.441Z,0.10
2022-11-18T22:04:05.073Z,0.10
2022-11-18T22:06:33.725Z,0.10
2022-11-18T22:09:01.598Z,0.00
2022-11-18T22:11:28.746Z,0.10
2022-11-18T22:13:55.879Z,0.10
2022-11-18T22:16:23.999Z,0.03
2022-11-18T22:18:57.365Z,0.20
2022-11-18T22:21:27.290Z,0.10
2022-11-18T22:23:58.391Z,0.10
2022-11-18T22:26:26.152Z,0.00
2022-11-18T22:28:54.479Z,0.00
2022-11-18T22:31:22.391Z,0.20
2022-11-18T22:33:50.549Z,0.15
2022-11-18T22:36:18.605Z,0.30
2022-11-18T22:38:46.189Z,0.10
2022-11-18T22:41:34.918Z,0.17
2022-11-18T22:44:06.984Z,0.10
2022-11-18T22:46:34.849Z,0.03
2022-11-18T22:49:02.045Z,0.10
2022-11-18T22:51:29.329Z,0.52
2022-11-18T22:54:15.973Z,0.40
2022-11-18T22:56:43.511Z,0.05
2022-11-18T22:59:12.778Z,0.40
2022-11-18T23:01:40.116Z,0.20
2022-11-18T23:04:07.305Z,0.15
2022-11-18T23:06:34.412Z,0.20
2022-11-18T23:09:01.572Z,0.00
2022-11-18T23:11:48.565Z,0.00
2022-11-18T23:14:15.662Z,0.00
2022-11-18T23:16:43.383Z,0.00
2022-11-18T23:19:13.198Z,0.00
2022-11-18T23:21:40.992Z,0.25
2022-11-18T23:24:10.730Z,0.00
2022-11-18T23:26:37.868Z,0.05
2022-11-18T23:29:04.977Z,0.10
2022-11-18T23:31:32.101Z,0.20
2022-11-18T23:33:59.661Z,0.40
2022-11-18T23:36:27.240Z,0.60
2022-11-18T23:38:54.738Z,0.20
2022-11-18T23:41:22.214Z,0.10
2022-11-18T23:43:49.364Z,0.00
2022-11-18T23:46:17.600Z,0.10
2022-11-18T23:48:45.360Z,0.40
2022-11-18T23:51:12.427Z,0.00
2022-11-18T23:53:39.872Z,0.30
2022-11-18T23:56:11.239Z,0.10
2022-11-18T23:58:39.123Z,0.10
